Time;durP1;ratioP1;P1;durP2;ratioP2;P2;SDS_P1;SDS_P2;PMS_P1;PMS_P2;Temp;Humidity;BMP_temperature;BMP_pressure;BME280_temperature;BME280_humidity;BME280_pressure;Samples;Min_cycle;Max_cycle;Signal;HPM_P1;HPM_P2
2022/04/22 00:00:40;;;;;;;0.20;0.20;;;;;;;;;;5112965;28;20204;-68
2022/04/22 00:03:08;;;;;;;0.00;0.00;;;;;;;;;;5112999;28;20825;-68
2022/04/22 00:05:36;;;;;;;0.27;0.27;;;;;;;;;;5112079;28;20288;-68
2022/04/22 00:08:04;;;;;;;0.00;0.00;;;;;;;;;;5112853;28;20282;-68
2022/04/22 00:10:32;;;;;;;0.00;0.00;;;;;;;;;;5112915;28;20194;-69
2022/04/22 00:12:59;;;;;;;0.00;0.00;;;;;;;;;;5111981;28;20202;-68
2022/04/22 00:15:28;;;;;;;0.00;0.00;;;;;;;;;;5111928;28;20198;-68
2022/04/22 00:17:56;;;;;;;0.63;0.63;;;;;;;;;;5112867;28;20208;-68
2022/04/22 00:20:23;;;;;;;0.00;0.00;;;;;;;;;;5112591;28;20651;-68
2022/04/22 00:22:50;;;;;;;0.33;0.20;;;;;;;;;;5112371;28;20240;-68
2022/04/22 00:25:18;;;;;;;0.00;0.00;;;;;;;;;;5111880;28;20204;-67
2022/04/22 00:27:46;;;;;;;0.00;0.00;;;;;;;;;;5100198;28;20225;-68
2022/04/22 00:30:13;;;;;;;0.00;0.00;;;;;;;;;;5092001;28;20671;-68
2022/04/22 00:32:42;;;;;;;0.20;0.20;;;;;;;;;;5092164;28;20198;-68
2022/04/22 00:35:10;;;;;;;0.03;0.03;;;;;;;;;;5100868;28;20200;-68
2022/04/22 00:37:39;;;;;;;0.00;0.00;;;;;;;;;;5112861;28;20228;-69
2022/04/22 00:40:07;;;;;;;0.20;0.13;;;;;;;;;;5097912;28;20202;-68
2022/04/22 00:42:36;;;;;;;0.00;0.00;;;;;;;;;;5107023;28;20208;-68
2022/04/22 00:45:04;;;;;;;0.10;0.10;;;;;;;;;;5110898;28;20193;-69
2022/04/22 00:47:31;;;;;;;0.00;0.00;;;;;;;;;;5110862;28;20193;-67
2022/04/22 00:50:00;;;;;;;0.70;0.70;;;;;;;;;;5112206;28;20200;-68
2022/04/22 00:52:28;;;;;;;0.20;0.20;;;;;;;;;;5112373;28;20680;-69
2022/04/22 00:54:56;;;;;;;0.00;0.00;;;;;;;;;;5111759;28;20213;-68
2022/04/22 00:57:23;;;;;;;0.20;0.20;;;;;;;;;;5116388;28;20201;-68
2022/04/22 00:59:53;;;;;;;1.50;0.83;;;;;;;;;;5116491;28;20563;-68
2022/04/22 01:02:21;;;;;;;1.90;0.60;;;;;;;;;;5116240;28;20650;-68
2022/04/22 01:10:20;;;;;;;1.03;0.93;;;;;;;;;;5113958;28;20207;-68
2022/04/22 01:12:48;;;;;;;0.00;0.00;;;;;;;;;;5116440;28;20216;-69
2022/04/22 01:15:15;;;;;;;0.47;0.47;;;;;;;;;;5114803;28;20197;-69
2022/04/22 01:17:43;;;;;;;0.60;0.50;;;;;;;;;;5116291;28;20311;-68
2022/04/22 01:20:11;;;;;;;0.83;0.83;;;;;;;;;;5116175;28;20281;-68
2022/04/22 01:22:40;;;;;;;1.03;1.03;;;;;;;;;;5115970;28;20263;-68
2022/04/22 01:25:07;;;;;;;0.97;0.53;;;;;;;;;;5112580;28;20223;-68
2022/04/22 01:27:37;;;;;;;1.90;1.53;;;;;;;;;;5116171;28;20219;-68
2022/04/22 01:30:06;;;;;;;1.13;0.40;;;;;;;;;;5116008;28;20190;-68
2022/04/22 01:32:33;;;;;;;1.00;1.00;;;;;;;;;;5116100;28;20204;-68
2022/04/22 01:35:01;;;;;;;0.10;0.10;;;;;;;;;;5114114;28;20293;-68
2022/04/22 01:37:28;;;;;;;0.90;0.90;;;;;;;;;;5110725;28;20253;-70
2022/04/22 01:39:57;;;;;;;0.50;0.50;;;;;;;;;;5106093;28;20193;-70
2022/04/22 01:42:25;;;;;;;0.63;0.50;;;;;;;;;;5115854;28;20280;-70
2022/04/22 01:44:52;;;;;;;1.07;0.77;;;;;;;;;;5114630;28;20231;-70
2022/04/22 01:47:20;;;;;;;0.47;0.47;;;;;;;;;;5115504;28;20225;-68
2022/04/22 01:49:47;;;;;;;1.17;0.80;;;;;;;;;;5115463;28;20201;-68
2022/04/22 01:52:15;;;;;;;0.33;0.33;;;;;;;;;;5115301;28;20200;-68
2022/04/22 01:54:43;;;;;;;0.53;0.40;;;;;;;;;;5113715;28;20190;-68
2022/04/22 01:57:12;;;;;;;2.53;0.53;;;;;;;;;;5115189;28;20193;-68
2022/04/22 01:59:40;;;;;;;0.60;0.60;;;;;;;;;;5115405;28;20201;-70
2022/04/22 02:02:08;;;;;;;1.27;1.17;;;;;;;;;;5115551;28;20654;-68
2022/04/22 02:04:35;;;;;;;0.10;0.10;;;;;;;;;;5114279;28;20224;-68
2022/04/22 02:07:03;;;;;;;7.17;1.73;;;;;;;;;;5114179;28;20194;-68
2022/04/22 02:09:30;;;;;;;1.53;1.03;;;;;;;;;;5113724;28;20208;-68
2022/04/22 02:11:58;;;;;;;0.83;0.50;;;;;;;;;;5115240;28;20196;-68
2022/04/22 02:14:27;;;;;;;1.40;1.13;;;;;;;;;;5114219;28;20204;-68
2022/04/22 02:16:56;;;;;;;3.00;2.53;;;;;;;;;;5112563;28;20600;-68
2022/04/22 02:19:23;;;;;;;0.73;0.73;;;;;;;;;;5114574;28;20196;-69
2022/04/22 02:21:51;;;;;;;1.17;1.03;;;;;;;;;;5114624;28;20225;-69
2022/04/22 02:24:19;;;;;;;2.20;1.80;;;;;;;;;;5114910;28;20225;-69
2022/04/22 02:29:33;;;;;;;1.30;1.03;;;;;;;;;;5107838;28;20259;-68
2022/04/22 02:32:01;;;;;;;2.47;2.27;;;;;;;;;;5094200;28;20190;-68
2022/04/22 02:34:29;;;;;;;2.87;1.10;;;;;;;;;;5094291;28;20685;-69
2022/04/22 02:36:56;;;;;;;1.37;1.27;;;;;;;;;;5102619;28;20608;-68
2022/04/22 02:39:23;;;;;;;0.70;0.70;;;;;;;;;;5114359;28;20208;-68
2022/04/22 02:47:21;;;;;;;1.23;1.13;;;;;;;;;;5112722;28;20338;-68
2022/04/22 02:49:49;;;;;;;0.67;0.40;;;;;;;;;;5114427;28;20221;-69
2022/04/22 02:52:17;;;;;;;1.03;0.33;;;;;;;;;;5114786;28;20691;-68
2022/04/22 02:54:44;;;;;;;0.30;0.30;;;;;;;;;;5114139;28;20213;-69
2022/04/22 02:57:12;;;;;;;0.77;0.77;;;;;;;;;;5113022;28;20734;-68
2022/04/22 02:59:42;;;;;;;2.73;1.73;;;;;;;;;;5113215;28;20658;-68
2022/04/22 03:02:10;;;;;;;0.73;0.73;;;;;;;;;;5114136;28;20658;-68
2022/04/22 03:04:37;;;;;;;1.17;0.87;;;;;;;;;;5114001;28;20745;-68
2022/04/22 03:07:05;;;;;;;0.63;0.63;;;;;;;;;;5113268;28;20277;-68
2022/04/22 03:09:32;;;;;;;2.30;2.10;;;;;;;;;;5114113;28;20720;-68
2022/04/22 03:12:00;;;;;;;1.27;1.17;;;;;;;;;;5113889;28;20238;-68
2022/04/22 03:14:29;;;;;;;1.23;1.03;;;;;;;;;;5112887;28;20242;-68
2022/04/22 03:16:58;;;;;;;1.17;0.80;;;;;;;;;;5112978;28;20194;-68
2022/04/22 03:19:25;;;;;;;0.83;0.83;;;;;;;;;;5113544;28;20224;-68
2022/04/22 03:21:53;;;;;;;2.00;1.83;;;;;;;;;;5113439;28;20257;-68
2022/04/22 03:24:20;;;;;;;0.30;0.30;;;;;;;;;;5113787;28;20229;-68
2022/04/22 03:26:48;;;;;;;1.57;1.47;;;;;;;;;;5113564;28;20229;-68
2022/04/22 03:29:15;;;;;;;0.67;0.67;;;;;;;;;;5111446;28;20746;-69
2022/04/22 03:31:43;;;;;;;1.07;1.07;;;;;;;;;;5113586;28;20246;-68
2022/04/22 03:34:12;;;;;;;2.43;2.20;;;;;;;;;;5113466;28;20194;-69
2022/04/22 03:36:39;;;;;;;1.20;0.93;;;;;;;;;;5113515;27;20658;-68
2022/04/22 03:39:07;;;;;;;0.50;0.50;;;;;;;;;;5111066;28;20205;-68
2022/04/22 03:41:35;;;;;;;1.33;0.97;;;;;;;;;;5113544;28;20190;-68
2022/04/22 03:44:02;;;;;;;0.40;0.30;;;;;;;;;;5112360;28;20256;-68
2022/04/22 03:46:31;;;;;;;0.00;0.00;;;;;;;;;;5113231;28;20261;-69
2022/04/22 03:49:00;;;;;;;3.20;2.30;;;;;;;;;;5111420;28;20194;-69
2022/04/22 03:51:29;;;;;;;0.90;0.80;;;;;;;;;;5113383;28;20278;-68
2022/04/22 03:53:56;;;;;;;2.53;2.00;;;;;;;;;;5113226;28;20559;-69
2022/04/22 03:59:08;;;;;;;3.40;2.93;;;;;;;;;;5108204;28;20216;-68
2022/04/22 04:01:36;;;;;;;0.67;0.67;;;;;;;;;;5112446;28;20289;-68
2022/04/22 04:04:03;;;;;;;0.50;0.50;;;;;;;;;;5113020;28;20257;-68
2022/04/22 04:06:32;;;;;;;0.80;0.80;;;;;;;;;;5112209;28;20288;-68
2022/04/22 04:17:14;;;;;;;3.30;1.67;;;;;;;;;;5093874;28;20237;-68
2022/04/22 04:25:13;;;;;;;2.80;0.83;;;;;;;;;;5112567;28;20252;-70
2022/04/22 04:27:40;;;;;;;2.13;1.93;;;;;;;;;;5110960;28;20288;-70
2022/04/22 04:30:09;;;;;;;2.43;1.97;;;;;;;;;;5112143;28;20194;-69
2022/04/22 04:32:36;;;;;;;1.50;1.40;;;;;;;;;;5110588;28;20272;-69
2022/04/22 04:35:03;;;;;;;0.77;0.77;;;;;;;;;;5103439;28;20639;-69
2022/04/22 04:37:32;;;;;;;0.40;0.40;;;;;;;;;;5094713;28;20217;-69
2022/04/22 04:40:00;;;;;;;3.53;2.67;;;;;;;;;;5112663;28;20230;-69
2022/04/22 04:42:27;;;;;;;2.37;1.83;;;;;;;;;;5112014;28;20233;-69
2022/04/22 04:44:54;;;;;;;2.80;2.33;;;;;;;;;;5112556;28;20221;-69
2022/04/22 04:47:22;;;;;;;2.10;1.00;;;;;;;;;;5111544;28;20243;-70
2022/04/22 04:49:49;;;;;;;1.00;0.73;;;;;;;;;;5111127;28;20206;-69
2022/04/22 04:52:17;;;;;;;1.23;1.13;;;;;;;;;;5112614;28;20196;-68
2022/04/22 04:54:48;;;;;;;0.87;0.87;;;;;;;;;;5112313;28;20197;-69
2022/04/22 04:57:15;;;;;;;0.27;0.27;;;;;;;;;;5111211;28;20224;-69
2022/04/22 04:59:43;;;;;;;2.67;2.20;;;;;;;;;;5111361;28;20292;-68
2022/04/22 05:02:11;;;;;;;3.43;2.80;;;;;;;;;;5111098;28;20193;-69
2022/04/22 05:04:39;;;;;;;2.53;1.10;;;;;;;;;;5112364;28;20226;-69
2022/04/22 05:07:06;;;;;;;3.83;1.83;;;;;;;;;;5112089;28;20312;-68
2022/04/22 05:09:34;;;;;;;3.60;2.33;;;;;;;;;;5112041;28;20201;-69
2022/04/22 05:12:03;;;;;;;0.77;0.77;;;;;;;;;;5112162;28;20193;-69
2022/04/22 05:14:30;;;;;;;5.23;3.17;;;;;;;;;;5112349;28;20237;-69
2022/04/22 05:16:59;;;;;;;2.00;1.17;;;;;;;;;;5112474;28;20282;-69
2022/04/22 05:19:26;;;;;;;2.57;2.33;;;;;;;;;;5110477;28;20197;-69
2022/04/22 05:21:55;;;;;;;1.67;0.63;;;;;;;;;;5111640;28;20325;-68
2022/04/22 05:24:22;;;;;;;0.50;0.50;;;;;;;;;;5109925;28;20718;-69
2022/04/22 05:26:50;;;;;;;0.97;0.70;;;;;;;;;;5112238;28;20266;-69
2022/04/22 05:34:49;;;;;;;3.10;1.60;;;;;;;;;;5107863;28;20205;-69
2022/04/22 05:37:16;;;;;;;2.87;2.47;;;;;;;;;;5110824;28;20225;-69
2022/04/22 05:39:44;;;;;;;1.70;0.40;;;;;;;;;;5108940;28;20285;-68
2022/04/22 05:42:12;;;;;;;3.47;1.93;;;;;;;;;;5113663;28;20189;-69
2022/04/22 05:44:41;;;;;;;1.33;1.23;;;;;;;;;;5114963;28;20257;-69
2022/04/22 05:47:09;;;;;;;1.43;1.10;;;;;;;;;;5115626;28;20247;-68
2022/04/22 05:49:36;;;;;;;0.97;0.87;;;;;;;;;;5114762;28;20340;-69
2022/04/22 05:52:04;;;;;;;2.97;2.60;;;;;;;;;;5115625;28;20281;-69
2022/04/22 05:54:34;;;;;;;3.20;2.13;;;;;;;;;;5115724;28;20284;-69
2022/04/22 05:57:01;;;;;;;2.93;2.27;;;;;;;;;;5101307;28;20199;-70
2022/04/22 05:59:29;;;;;;;2.37;2.03;;;;;;;;;;5106718;28;20197;-69
2022/04/22 06:01:58;;;;;;;3.13;2.83;;;;;;;;;;5115334;28;20190;-69
2022/04/22 06:04:25;;;;;;;1.07;0.97;;;;;;;;;;5115022;28;20233;-70
2022/04/22 06:06:52;;;;;;;1.40;1.30;;;;;;;;;;5097072;28;20218;-69
2022/04/22 06:12:05;;;;;;;0.67;0.67;;;;;;;;;;5115220;28;20348;-69
2022/04/22 06:14:32;;;;;;;1.50;1.40;;;;;;;;;;5115062;28;20289;-70
2022/04/22 06:17:01;;;;;;;1.33;1.23;;;;;;;;;;5105381;28;20228;-69
2022/04/22 06:19:28;;;;;;;1.97;1.83;;;;;;;;;;5109833;28;20280;-69
2022/04/22 06:21:55;;;;;;;4.27;2.40;;;;;;;;;;5114240;28;20225;-69
2022/04/22 06:24:23;;;;;;;1.13;0.80;;;;;;;;;;5114941;28;20212;-70
2022/04/22 06:26:50;;;;;;;3.53;2.10;;;;;;;;;;5114749;28;20203;-67
2022/04/22 06:29:18;;;;;;;0.93;0.83;;;;;;;;;;5113721;28;20186;-68
2022/04/22 06:31:46;;;;;;;2.47;2.27;;;;;;;;;;5104585;28;20601;-68
2022/04/22 06:34:15;;;;;;;1.47;1.33;;;;;;;;;;5110167;28;20201;-68
2022/04/22 06:36:42;;;;;;;2.50;2.23;;;;;;;;;;5114727;28;20651;-68
2022/04/22 06:39:10;;;;;;;1.80;1.00;;;;;;;;;;5114316;28;20189;-68
2022/04/22 06:47:09;;;;;;;1.80;1.27;;;;;;;;;;5113013;28;20298;-67
2022/04/22 06:49:38;;;;;;;2.33;1.80;;;;;;;;;;5093914;28;20293;-68
2022/04/22 06:52:07;;;;;;;9.00;2.20;;;;;;;;;;5113299;28;20549;-69
2022/04/22 06:54:34;;;;;;;3.83;1.73;;;;;;;;;;5113971;28;20663;-69
2022/04/22 06:57:02;;;;;;;5.80;3.07;;;;;;;;;;5114371;28;20658;-69
2022/04/22 06:59:31;;;;;;;3.83;3.43;;;;;;;;;;5114035;28;20198;-68
2022/04/22 07:01:58;;;;;;;2.97;2.67;;;;;;;;;;5112124;28;20204;-68
2022/04/22 07:04:26;;;;;;;5.03;2.93;;;;;;;;;;5113193;28;20197;-68
2022/04/22 07:06:55;;;;;;;4.10;2.67;;;;;;;;;;5113864;28;20188;-68
2022/04/22 07:09:23;;;;;;;4.37;2.37;;;;;;;;;;5113722;28;20200;-68
2022/04/22 07:11:53;;;;;;;3.63;3.33;;;;;;;;;;5111294;28;20205;-68
2022/04/22 07:14:22;;;;;;;0.83;0.80;;;;;;;;;;5093935;28;20202;-69
2022/04/22 07:16:50;;;;;;;4.43;3.37;;;;;;;;;;5110580;28;20206;-69
2022/04/22 07:19:17;;;;;;;4.73;3.37;;;;;;;;;;5113516;28;20194;-72
2022/04/22 07:21:45;;;;;;;1.93;1.83;;;;;;;;;;5113601;28;20668;-72
2022/04/22 07:24:14;;;;;;;2.67;2.13;;;;;;;;;;5109177;28;20613;-73
2022/04/22 07:26:44;;;;;;;2.17;2.03;;;;;;;;;;5112447;28;20233;-73
2022/04/22 07:29:14;;;;;;;4.53;3.57;;;;;;;;;;5113859;28;20193;-70
2022/04/22 07:31:42;;;;;;;2.50;2.27;;;;;;;;;;5093308;28;20682;-72
2022/04/22 07:34:09;;;;;;;0.83;0.83;;;;;;;;;;5093339;28;20198;-72
2022/04/22 07:36:38;;;;;;;1.63;1.53;;;;;;;;;;5099549;28;20194;-72
2022/04/22 07:39:05;;;;;;;8.07;4.07;;;;;;;;;;5093347;28;20194;-72
2022/04/22 07:41:38;;;;;;;3.30;2.07;;;;;;;;;;5092776;28;20287;-72
2022/04/22 07:46:58;;;;;;;5.47;3.63;;;;;;;;;;5112577;28;20239;-72
2022/04/22 07:49:26;;;;;;;4.73;3.60;;;;;;;;;;5113061;28;20650;-71
2022/04/22 07:51:54;;;;;;;2.50;1.97;;;;;;;;;;5113363;28;20288;-71
2022/04/22 07:54:22;;;;;;;3.20;2.90;;;;;;;;;;5098220;28;20698;-70
2022/04/22 07:56:52;;;;;;;1.10;1.10;;;;;;;;;;5109393;28;20230;-72
2022/04/22 07:59:20;;;;;;;2.37;1.83;;;;;;;;;;5112897;28;20244;-70
2022/04/22 08:01:47;;;;;;;3.30;2.97;;;;;;;;;;5112966;28;20289;-70
2022/04/22 08:04:16;;;;;;;7.70;5.97;;;;;;;;;;5112524;28;20197;-70
2022/04/22 08:06:44;;;;;;;3.57;2.23;;;;;;;;;;5111969;28;20600;-70
2022/04/22 08:09:12;;;;;;;2.67;2.03;;;;;;;;;;5111900;28;20204;-69
2022/04/22 08:11:42;;;;;;;10.10;3.77;;;;;;;;;;5112772;28;20297;-71
2022/04/22 08:14:11;;;;;;;0.90;0.90;;;;;;;;;;5112762;28;20199;-71
2022/04/22 08:16:38;;;;;;;2.30;2.10;;;;;;;;;;5111923;28;20639;-71
2022/04/22 08:19:06;;;;;;;4.83;4.37;;;;;;;;;;5112884;28;20193;-70
2022/04/22 08:21:33;;;;;;;8.50;5.63;;;;;;;;;;5112476;28;20237;-70
2022/04/22 08:24:03;;;;;;;2.63;2.07;;;;;;;;;;5111940;28;20205;-70
2022/04/22 08:26:32;;;;;;;0.37;0.37;;;;;;;;;;5111014;28;20697;-70
2022/04/22 08:28:59;;;;;;;3.07;2.60;;;;;;;;;;5103455;28;20558;-70
2022/04/22 08:31:28;;;;;;;2.20;2.00;;;;;;;;;;5091918;28;20209;-70
2022/04/22 08:33:57;;;;;;;0.57;0.57;;;;;;;;;;5092247;28;20198;-70
2022/04/22 08:36:25;;;;;;;0.83;0.70;;;;;;;;;;5104479;28;20676;-70
2022/04/22 08:38:52;;;;;;;3.60;1.83;;;;;;;;;;5111704;28;20567;-70
2022/04/22 08:41:22;;;;;;;5.37;4.27;;;;;;;;;;5112604;28;20276;-70
2022/04/22 08:43:52;;;;;;;0.97;0.97;;;;;;;;;;5112498;28;20194;-70
2022/04/22 08:51:50;;;;;;;3.23;2.30;;;;;;;;;;5110737;28;20262;-71
2022/04/22 08:54:19;;;;;;;5.60;3.83;;;;;;;;;;5112421;28;20204;-71
2022/04/22 08:56:47;;;;;;;2.80;2.57;;;;;;;;;;5111551;28;20204;-69
2022/04/22 08:59:15;;;;;;;6.20;3.97;;;;;;;;;;5112357;28;20201;-71
2022/04/22 09:01:42;;;;;;;1.10;1.03;;;;;;;;;;5112106;28;20563;-71
2022/04/22 09:04:11;;;;;;;1.47;1.37;;;;;;;;;;5112257;28;20193;-71
2022/04/22 09:06:40;;;;;;;3.40;2.30;;;;;;;;;;5107969;28;20239;-70
2022/04/22 09:09:08;;;;;;;3.80;3.30;;;;;;;;;;5112314;28;20194;-71
2022/04/22 09:11:38;;;;;;;2.33;1.80;;;;;;;;;;5112189;28;20690;-69
2022/04/22 09:14:05;;;;;;;2.93;2.23;;;;;;;;;;5112423;28;20232;-71
2022/04/22 09:16:33;;;;;;;3.07;2.53;;;;;;;;;;5114412;28;20205;-69
2022/04/22 09:19:01;;;;;;;1.57;1.47;;;;;;;;;;5115661;28;20206;-70
2022/04/22 09:21:31;;;;;;;2.40;1.83;;;;;;;;;;5114413;28;20622;-70
2022/04/22 09:23:58;;;;;;;2.53;1.80;;;;;;;;;;5114954;28;20193;-70
2022/04/22 09:26:26;;;;;;;5.30;3.73;;;;;;;;;;5115847;28;20221;-70
2022/04/22 09:28:58;;;;;;;6.30;2.87;;;;;;;;;;5116116;28;20201;-69
2022/04/22 09:31:25;;;;;;;7.30;4.50;;;;;;;;;;5109496;28;20205;-70
2022/04/22 09:33:53;;;;;;;3.97;3.57;;;;;;;;;;5115963;28;20258;-73
2022/04/22 09:44:55;;;;;;;4.23;3.03;;;;;;;;;;5115824;28;20201;-69
2022/04/22 09:47:23;;;;;;;2.90;2.17;;;;;;;;;;5115625;28;20236;-67
2022/04/22 09:49:51;;;;;;;2.43;2.27;;;;;;;;;;5116426;28;20201;-69
2022/04/22 09:52:26;;;;;;;5.13;2.53;;;;;;;;;;5115968;28;20223;-68
2022/04/22 09:54:59;;;;;;;1.30;1.10;;;;;;;;;;5116564;28;20203;-68
2022/04/22 09:57:27;;;;;;;4.53;2.20;;;;;;;;;;5115195;28;20247;-67
2022/04/22 09:59:54;;;;;;;1.20;1.03;;;;;;;;;;5114805;28;20575;-71
2022/04/22 10:02:25;;;;;;;4.03;1.90;;;;;;;;;;5111975;27;20205;-68
2022/04/22 10:04:54;;;;;;;3.43;2.97;;;;;;;;;;5114455;28;20505;-68
2022/04/22 10:07:24;;;;;;;1.47;1.37;;;;;;;;;;5115024;28;20814;-68
2022/04/22 10:09:53;;;;;;;4.30;2.73;;;;;;;;;;5115038;28;20189;-68
2022/04/22 10:12:24;;;;;;;2.83;2.50;;;;;;;;;;5111190;28;20236;-68
2022/04/22 10:14:54;;;;;;;2.57;1.03;;;;;;;;;;5115510;28;20189;-69
2022/04/22 10:17:23;;;;;;;1.60;1.50;;;;;;;;;;5115167;28;20242;-68
2022/04/22 10:19:51;;;;;;;2.17;1.60;;;;;;;;;;5115270;28;20201;-68
2022/04/22 10:22:19;;;;;;;12.27;4.10;;;;;;;;;;5114615;28;20784;-72
2022/04/22 10:24:47;;;;;;;1.40;1.30;;;;;;;;;;5109717;28;20582;-69
2022/04/22 10:27:15;;;;;;;4.35;3.40;;;;;;;;;;5110762;28;20251;-69
2022/04/22 10:29:44;;;;;;;2.35;2.15;;;;;;;;;;5114994;28;20189;-68
2022/04/22 10:32:13;;;;;;;1.38;1.23;;;;;;;;;;5114795;28;20200;-69
2022/04/22 10:34:41;;;;;;;0.65;0.20;;;;;;;;;;5114021;28;20194;-69
2022/04/22 10:37:17;;;;;;;2.72;2.05;;;;;;;;;;5114583;28;20258;-69
2022/04/22 10:39:44;;;;;;;3.25;2.13;;;;;;;;;;5113872;28;20197;-70
2022/04/22 10:42:15;;;;;;;2.93;2.00;;;;;;;;;;5114539;28;20656;-69
2022/04/22 10:47:40;;;;;;;1.90;1.63;;;;;;;;;;5114249;28;20306;-72
2022/04/22 10:50:22;;;;;;;1.80;1.50;;;;;;;;;;5114444;28;20189;-70
2022/04/22 10:53:02;;;;;;;2.67;2.23;;;;;;;;;;5112295;28;20194;-72
2022/04/22 10:55:30;;;;;;;0.30;0.30;;;;;;;;;;5094779;28;20220;-71
2022/04/22 10:58:16;;;;;;;2.70;2.50;;;;;;;;;;5104778;28;20651;-70
2022/04/22 11:00:46;;;;;;;2.07;1.87;;;;;;;;;;5114484;28;20198;-69
2022/04/22 11:03:18;;;;;;;2.87;1.80;;;;;;;;;;5113843;28;20193;-67
2022/04/22 11:05:49;;;;;;;6.67;2.43;;;;;;;;;;5114207;28;20201;-68
2022/04/22 11:08:24;;;;;;;1.20;1.17;;;;;;;;;;5113205;28;20587;-68
2022/04/22 11:11:00;;;;;;;4.13;2.53;;;;;;;;;;5111616;28;20201;-66
2022/04/22 11:13:29;;;;;;;1.13;0.90;;;;;;;;;;5093614;28;20622;-68
2022/04/22 11:16:01;;;;;;;1.37;1.30;;;;;;;;;;5093835;28;20198;-70
2022/04/22 11:18:28;;;;;;;0.87;0.87;;;;;;;;;;5093662;28;20651;-67
2022/04/22 11:21:00;;;;;;;1.60;1.07;;;;;;;;;;5095600;28;20212;-73
2022/04/22 11:23:36;;;;;;;1.73;1.63;;;;;;;;;;5073276;28;20569;-68
2022/04/22 11:26:04;;;;;;;1.40;1.30;;;;;;;;;;5058766;28;20222;-68
2022/04/22 11:28:35;;;;;;;0.20;0.13;;;;;;;;;;5073140;28;20563;-69
2022/04/22 11:31:07;;;;;;;2.97;1.33;;;;;;;;;;5072997;28;20625;-68
2022/04/22 11:33:36;;;;;;;1.40;1.10;;;;;;;;;;5070891;28;20222;-68
2022/04/22 11:36:06;;;;;;;1.57;1.30;;;;;;;;;;5073183;28;20218;-69
2022/04/22 11:38:34;;;;;;;1.87;1.77;;;;;;;;;;5072671;28;20196;-69
2022/04/22 11:41:01;;;;;;;0.30;0.30;;;;;;;;;;5072222;28;20293;-69
2022/04/22 11:43:29;;;;;;;3.70;3.37;;;;;;;;;;5069564;28;20233;-68
2022/04/22 11:45:57;;;;;;;1.33;1.23;;;;;;;;;;5062918;28;20198;-69
2022/04/22 11:48:26;;;;;;;3.43;2.73;;;;;;;;;;5072528;28;20205;-67
2022/04/22 11:50:54;;;;;;;1.03;0.40;;;;;;;;;;5072786;28;20200;-67
2022/04/22 11:53:22;;;;;;;1.80;0.87;;;;;;;;;;5056891;28;20204;-67
2022/04/22 11:55:50;;;;;;;1.20;1.07;;;;;;;;;;5052640;28;20227;-67
2022/04/22 11:58:20;;;;;;;2.20;1.53;;;;;;;;;;5066822;28;20663;-67
2022/04/22 12:06:21;;;;;;;1.37;0.90;;;;;;;;;;5071758;28;20361;-67
2022/04/22 12:08:52;;;;;;;0.30;0.30;;;;;;;;;;5071564;28;20195;-67
2022/04/22 12:11:20;;;;;;;2.73;2.17;;;;;;;;;;5071508;28;20209;-67
2022/04/22 12:13:48;;;;;;;0.30;0.17;;;;;;;;;;5070982;28;20206;-67
2022/04/22 12:16:19;;;;;;;0.80;0.73;;;;;;;;;;5072572;28;20195;-67
2022/04/22 12:18:49;;;;;;;0.90;0.80;;;;;;;;;;5072648;28;20203;-67
2022/04/22 12:21:18;;;;;;;6.27;2.10;;;;;;;;;;5074913;28;20205;-67
2022/04/22 12:23:45;;;;;;;2.63;2.17;;;;;;;;;;5112674;28;20198;-68
2022/04/22 12:26:17;;;;;;;2.77;2.53;;;;;;;;;;5112790;28;20204;-67
2022/04/22 12:28:57;;;;;;;0.80;0.60;;;;;;;;;;5113051;28;20208;-67
2022/04/22 12:31:25;;;;;;;2.17;2.00;;;;;;;;;;5110964;28;20570;-67
2022/04/22 12:33:59;;;;;;;1.87;1.40;;;;;;;;;;5112719;28;20193;-67
2022/04/22 12:36:27;;;;;;;0.90;0.90;;;;;;;;;;5111910;28;20193;-67
2022/04/22 12:38:54;;;;;;;1.77;1.60;;;;;;;;;;5112533;28;20662;-67
2022/04/22 12:41:23;;;;;;;4.87;3.57;;;;;;;;;;5111772;28;20588;-66
2022/04/22 12:43:52;;;;;;;2.27;0.37;;;;;;;;;;5110912;28;20258;-67
2022/04/22 12:52:10;;;;;;;2.03;1.73;;;;;;;;;;5115625;28;20754;-67
2022/04/22 12:54:37;;;;;;;2.07;1.77;;;;;;;;;;5112230;28;20205;-66
2022/04/22 12:57:06;;;;;;;0.43;0.30;;;;;;;;;;5096581;28;20603;-67
2022/04/22 12:59:44;;;;;;;0.53;0.53;;;;;;;;;;5102652;28;20546;-67
2022/04/22 13:02:14;;;;;;;1.33;1.23;;;;;;;;;;5116456;28;20193;-66
2022/04/22 13:04:53;;;;;;;0.93;0.93;;;;;;;;;;5115713;27;20221;-68
2022/04/22 13:07:21;;;;;;;2.40;2.20;;;;;;;;;;5095554;28;20725;-67
2022/04/22 13:09:48;;;;;;;4.63;2.17;;;;;;;;;;5096384;28;20206;-71
2022/04/22 13:12:16;;;;;;;4.23;3.43;;;;;;;;;;5096444;28;20232;-68
2022/04/22 13:14:44;;;;;;;1.13;1.03;;;;;;;;;;5100138;28;20572;-68
2022/04/22 13:17:21;;;;;;;1.27;1.17;;;;;;;;;;5095451;28;20198;-67
2022/04/22 13:19:49;;;;;;;2.23;1.93;;;;;;;;;;5095634;28;20198;-68
2022/04/22 13:22:18;;;;;;;1.33;1.23;;;;;;;;;;5104607;28;20794;-67
2022/04/22 13:24:46;;;;;;;1.43;1.33;;;;;;;;;;5113846;28;20883;-67
2022/04/22 13:27:14;;;;;;;5.17;2.23;;;;;;;;;;5115819;28;20690;-67
2022/04/22 13:29:41;;;;;;;1.67;1.00;;;;;;;;;;5115983;28;20673;-69
2022/04/22 13:32:09;;;;;;;5.70;4.43;;;;;;;;;;5108418;28;20205;-69
2022/04/22 13:34:37;;;;;;;3.77;3.00;;;;;;;;;;5110253;28;20677;-69
2022/04/22 13:37:05;;;;;;;0.37;0.37;;;;;;;;;;5116126;28;20201;-69
2022/04/22 13:39:33;;;;;;;0.97;0.97;;;;;;;;;;5115682;28;20208;-68
2022/04/22 13:42:01;;;;;;;1.93;1.83;;;;;;;;;;5115742;28;20205;-69
2022/04/22 13:52:43;;;;;;;2.63;2.43;;;;;;;;;;5095343;28;20243;-68
2022/04/22 13:55:12;;;;;;;2.33;1.40;;;;;;;;;;5095127;28;20208;-67
2022/04/22 13:57:40;;;;;;;6.70;2.23;;;;;;;;;;5098455;28;20201;-68
2022/04/22 14:00:08;;;;;;;2.50;2.23;;;;;;;;;;5115589;28;20234;-66
2022/04/22 14:02:35;;;;;;;5.97;4.13;;;;;;;;;;5112658;28;20284;-66
2022/04/22 14:05:03;;;;;;;1.63;1.53;;;;;;;;;;5115249;28;20194;-68
2022/04/22 14:07:30;;;;;;;2.47;1.40;;;;;;;;;;5115761;28;20233;-66
2022/04/22 14:09:58;;;;;;;0.20;0.20;;;;;;;;;;5116036;28;20208;-66
2022/04/22 14:12:27;;;;;;;3.07;2.40;;;;;;;;;;5115532;28;20727;-66
2022/04/22 14:14:55;;;;;;;2.30;1.10;;;;;;;;;;5115366;28;20197;-66
2022/04/22 14:17:22;;;;;;;1.03;0.97;;;;;;;;;;5114271;28;20204;-66
2022/04/22 14:19:49;;;;;;;1.60;1.47;;;;;;;;;;5114927;28;20648;-66
2022/04/22 14:22:17;;;;;;;3.20;2.83;;;;;;;;;;5112076;28;20227;-67
2022/04/22 14:24:44;;;;;;;3.77;1.90;;;;;;;;;;5114284;28;20197;-67
2022/04/22 14:27:14;;;;;;;1.43;1.10;;;;;;;;;;5114811;28;20225;-66
2022/04/22 14:29:43;;;;;;;1.03;1.03;;;;;;;;;;5114033;28;20241;-66
2022/04/22 14:32:11;;;;;;;0.83;0.73;;;;;;;;;;5113475;28;20703;-67
2022/04/22 14:34:39;;;;;;;3.77;3.47;;;;;;;;;;5114872;28;20201;-67
2022/04/22 14:37:07;;;;;;;2.47;1.43;;;;;;;;;;5114618;28;20198;-67
2022/04/22 14:39:34;;;;;;;2.30;1.50;;;;;;;;;;5114243;28;20304;-68
2022/04/22 14:42:02;;;;;;;2.10;1.93;;;;;;;;;;5114728;28;20584;-68
2022/04/22 14:44:29;;;;;;;2.20;1.50;;;;;;;;;;5114537;28;20697;-68
2022/04/22 14:46:58;;;;;;;1.40;0.83;;;;;;;;;;5099384;28;20198;-67
2022/04/22 14:49:26;;;;;;;0.00;0.00;;;;;;;;;;5114138;28;20194;-69
2022/04/22 14:51:54;;;;;;;2.77;1.63;;;;;;;;;;5113720;28;20202;-68
2022/04/22 14:54:21;;;;;;;2.53;1.60;;;;;;;;;;5109365;28;20194;-67
2022/04/22 14:56:49;;;;;;;2.30;2.10;;;;;;;;;;5094022;28;20198;-68
2022/04/22 14:59:19;;;;;;;3.70;2.17;;;;;;;;;;5093711;28;20566;-68
2022/04/22 15:01:46;;;;;;;1.67;1.03;;;;;;;;;;5093795;28;20194;-66
2022/04/22 15:04:15;;;;;;;2.10;1.63;;;;;;;;;;5102286;28;20655;-66
2022/04/22 15:06:42;;;;;;;0.60;0.60;;;;;;;;;;5112836;28;20198;-66
2022/04/22 15:09:10;;;;;;;1.53;1.43;;;;;;;;;;5114200;28;20252;-65
2022/04/22 15:11:37;;;;;;;0.93;0.93;;;;;;;;;;5111611;28;20194;-65
2022/04/22 15:14:05;;;;;;;1.47;1.37;;;;;;;;;;5113797;28;20204;-65
2022/04/22 15:16:32;;;;;;;0.23;0.23;;;;;;;;;;5114096;28;20197;-65
2022/04/22 15:24:31;;;;;;;1.67;1.37;;;;;;;;;;5113757;28;20201;-66
2022/04/22 15:26:59;;;;;;;2.33;1.83;;;;;;;;;;5111151;28;20225;-66
2022/04/22 15:29:26;;;;;;;1.30;1.20;;;;;;;;;;5113448;28;20606;-66
2022/04/22 15:31:54;;;;;;;1.83;1.67;;;;;;;;;;5113752;28;20258;-65
2022/04/22 15:34:22;;;;;;;1.43;0.60;;;;;;;;;;5112889;28;20205;-66
2022/04/22 15:36:50;;;;;;;0.80;0.67;;;;;;;;;;5112759;28;20215;-66
2022/04/22 15:39:20;;;;;;;1.17;0.50;;;;;;;;;;5113251;28;20200;-65
2022/04/22 15:41:47;;;;;;;2.97;1.63;;;;;;;;;;5112810;27;20622;-65
2022/04/22 15:44:25;;;;;;;0.67;0.67;;;;;;;;;;5113534;28;20205;-65
2022/04/22 15:46:52;;;;;;;2.93;1.47;;;;;;;;;;5112022;28;20197;-66
2022/04/22 15:49:19;;;;;;;0.43;0.40;;;;;;;;;;5113155;28;20602;-65
2022/04/22 15:51:47;;;;;;;0.00;0.00;;;;;;;;;;5112311;28;20209;-66
2022/04/22 15:54:16;;;;;;;1.63;1.03;;;;;;;;;;5113381;28;20559;-65
2022/04/22 15:56:43;;;;;;;3.30;2.37;;;;;;;;;;5113269;28;20193;-65
2022/04/22 15:59:11;;;;;;;1.53;1.13;;;;;;;;;;5110529;28;20620;-65
2022/04/22 16:01:40;;;;;;;0.97;0.83;;;;;;;;;;5113101;28;20723;-65
2022/04/22 16:04:09;;;;;;;0.80;0.80;;;;;;;;;;5113146;28;20246;-65
2022/04/22 16:06:38;;;;;;;2.57;1.43;;;;;;;;;;5110645;28;20284;-66
2022/04/22 16:09:06;;;;;;;1.67;1.57;;;;;;;;;;5109599;28;20225;-66
2022/04/22 16:17:13;;;;;;;1.40;1.23;;;;;;;;;;5108359;28;20230;-66
2022/04/22 16:19:42;;;;;;;2.30;1.77;;;;;;;;;;5111933;28;20216;-67
2022/04/22 16:22:09;;;;;;;0.57;0.30;;;;;;;;;;5111100;28;20748;-66
2022/04/22 16:24:37;;;;;;;0.77;0.70;;;;;;;;;;5112771;28;20190;-66